sensor_id;sensor_type;location;lat;lon;timestamp;temperature;humidity
17529;DHT22;8882;53.192;8.184;2023-02-28T05:31:30;3.50;99.90
17529;DHT22;8882;53.192;8.184;2023-02-28T05:33:55;3.50;99.90
17529;DHT22;8882;53.192;8.184;2023-02-28T05:36:21;3.40;99.90
17529;DHT22;8882;53.192;8.184;2023-02-28T05:38:48;3.40;99.90
17529;DHT22;8882;53.192;8.184;2023-02-28T05:41:14;3.40;99.90
17529;DHT22;8882;53.192;8.184;2023-02-28T05:43:40;3.40;99.90
17529;DHT22;8882;53.192;8.184;2023-02-28T05:46:07;3.30;99.90
17529;DHT22;8882;53.192;8.184;2023-02-28T05:48:35;3.30;99.90
17529;DHT22;8882;53.192;8.184;2023-02-28T05:51:01;3.30;99.90
17529;DHT22;8882;53.192;8.184;2023-02-28T05:53:27;3.20;99.90
17529;DHT22;8882;53.192;8.184;2023-02-28T05:55:53;3.10;99.90
17529;DHT22;8882;53.192;8.184;2023-02-28T05:58:18;3.20;99.90
17529;DHT22;8882;53.192;8.184;2023-02-28T06:00:44;3.20;99.90
17529;DHT22;8882;53.192;8.184;2023-02-28T06:03:09;3.10;99.90
17529;DHT22;8882;53.192;8.184;2023-02-28T06:05:35;3.10;99.90
17529;DHT22;8882;53.192;8.184;2023-02-28T06:08:00;3.10;99.90
17529;DHT22;8882;53.192;8.184;2023-02-28T06:10:26;3.10;99.90
17529;DHT22;8882;53.192;8.184;2023-02-28T06:12:51;3.10;99.90
17529;DHT22;8882;53.192;8.184;2023-02-28T06:15:17;3.10;99.90
17529;DHT22;8882;53.192;8.184;2023-02-28T06:17:43;3.20;99.90
17529;DHT22;8882;53.192;8.184;2023-02-28T06:20:11;3.10;99.90
17529;DHT22;8882;53.192;8.184;2023-02-28T06:22:38;3.10;99.90
17529;DHT22;8882;53.192;8.184;2023-02-28T06:25:05;3.10;99.90
17529;DHT22;8882;53.192;8.184;2023-02-28T06:27:32;3.20;99.90
17529;DHT22;8882;53.192;8.184;2023-02-28T06:29:57;3.10;99.90
17529;DHT22;8882;53.192;8.184;2023-02-28T06:32:23;3.10;99.90
17529;DHT22;8882;53.192;8.184;2023-02-28T06:34:48;3.20;99.90
17529;DHT22;8882;53.192;8.184;2023-02-28T06:37:16;3.20;99.90
17529;DHT22;8882;53.192;8.184;2023-02-28T06:39:41;3.10;99.90
17529;DHT22;8882;53.192;8.184;2023-02-28T06:42:07;3.10;99.90
17529;DHT22;8882;53.192;8.184;2023-02-28T06:44:32;3.20;99.90
17529;DHT22;8882;53.192;8.184;2023-02-28T06:47:04;3.10;99.90
17529;DHT22;8882;53.192;8.184;2023-02-28T06:49:31;3.20;99.90
17529;DHT22;8882;53.192;8.184;2023-02-28T06:51:57;3.10;99.90
17529;DHT22;8882;53.192;8.184;2023-02-28T06:54:22;3.10;99.90
17529;DHT22;8882;53.192;8.184;2023-02-28T06:56:48;3.20;99.90
17529;DHT22;8882;53.192;8.184;2023-02-28T06:59:14;3.10;99.90
17529;DHT22;8882;53.192;8.184;2023-02-28T07:01:40;3.20;99.90
17529;DHT22;8882;53.192;8.184;2023-02-28T07:04:06;3.10;99.90
17529;DHT22;8882;53.192;8.184;2023-02-28T07:06:32;3.20;99.90
17529;DHT22;8882;53.192;8.184;2023-02-28T07:08:58;3.20;99.90
17529;DHT22;8882;53.192;8.184;2023-02-28T07:11:25;3.20;99.90
17529;DHT22;8882;53.192;8.184;2023-02-28T07:13:55;3.20;99.90
17529;DHT22;8882;53.192;8.184;2023-02-28T07:16:21;3.20;99.90
17529;DHT22;8882;53.192;8.184;2023-02-28T07:18:47;3.20;99.90
17529;DHT22;8882;53.192;8.184;2023-02-28T07:21:13;3.20;99.90
17529;DHT22;8882;53.192;8.184;2023-02-28T07:23:38;3.20;99.90
17529;DHT22;8882;53.192;8.184;2023-02-28T07:26:05;3.20;99.90
17529;DHT22;8882;53.192;8.184;2023-02-28T07:28:32;3.20;99.90
17529;DHT22;8882;53.192;8.184;2023-02-28T07:31:03;3.20;99.90
17529;DHT22;8882;53.192;8.184;2023-02-28T07:33:29;3.20;99.90
17529;DHT22;8882;53.192;8.184;2023-02-28T07:36:00;3.20;99.90
17529;DHT22;8882;53.192;8.184;2023-02-28T07:38:26;3.30;99.90
17529;DHT22;8882;53.192;8.184;2023-02-28T07:40:52;3.30;99.90
17529;DHT22;8882;53.192;8.184;2023-02-28T07:43:17;3.30;99.90
17529;DHT22;8882;53.192;8.184;2023-02-28T07:45:43;3.40;99.90
17529;DHT22;8882;53.192;8.184;2023-02-28T07:48:08;3.40;99.90
17529;DHT22;8882;53.192;8.184;2023-02-28T07:50:35;3.50;99.90
17529;DHT22;8882;53.192;8.184;2023-02-28T07:53:00;3.50;99.90
17529;DHT22;8882;53.192;8.184;2023-02-28T07:55:26;3.40;99.90
17529;DHT22;8882;53.192;8.184;2023-02-28T07:57:52;3.40;99.90
17529;DHT22;8882;53.192;8.184;2023-02-28T08:00:17;3.40;99.90
17529;DHT22;8882;53.192;8.184;2023-02-28T08:02:43;3.40;99.90
17529;DHT22;8882;53.192;8.184;2023-02-28T08:05:09;3.50;99.90
17529;DHT22;8882;53.192;8.184;2023-02-28T08:07:34;3.40;99.90
17529;DHT22;8882;53.192;8.184;2023-02-28T08:10:00;3.50;99.90
17529;DHT22;8882;53.192;8.184;2023-02-28T08:12:26;3.50;99.90
17529;DHT22;8882;53.192;8.184;2023-02-28T08:14:51;3.50;99.90
17529;DHT22;8882;53.192;8.184;2023-02-28T08:17:17;3.60;99.90
17529;DHT22;8882;53.192;8.184;2023-02-28T08:19:45;3.60;99.90
17529;DHT22;8882;53.192;8.184;2023-02-28T08:22:11;3.60;99.90
17529;DHT22;8882;53.192;8.184;2023-02-28T08:24:36;3.60;99.90
17529;DHT22;8882;53.192;8.184;2023-02-28T08:27:02;3.70;99.90
17529;DHT22;8882;53.192;8.184;2023-02-28T08:29:28;3.80;99.90
17529;DHT22;8882;53.192;8.184;2023-02-28T08:31:55;3.80;99.90
17529;DHT22;8882;53.192;8.184;2023-02-28T08:34:20;3.80;99.90
17529;DHT22;8882;53.192;8.184;2023-02-28T08:36:46;4.00;99.90
17529;DHT22;8882;53.192;8.184;2023-02-28T08:39:12;4.10;99.90
17529;DHT22;8882;53.192;8.184;2023-02-28T08:41:38;4.10;99.90
17529;DHT22;8882;53.192;8.184;2023-02-28T08:44:03;4.20;99.90
17529;DHT22;8882;53.192;8.184;2023-02-28T08:46:29;4.30;99.90
17529;DHT22;8882;53.192;8.184;2023-02-28T08:48:56;4.30;99.90
17529;DHT22;8882;53.192;8.184;2023-02-28T08:51:24;4.40;99.90
17529;DHT22;8882;53.192;8.184;2023-02-28T08:53:54;4.50;99.90
17529;DHT22;8882;53.192;8.184;2023-02-28T08:56:20;4.60;99.90
17529;DHT22;8882;53.192;8.184;2023-02-28T08:58:48;5.00;99.90
17529;DHT22;8882;53.192;8.184;2023-02-28T09:01:19;5.40;99.90
17529;DHT22;8882;53.192;8.184;2023-02-28T09:03:47;5.50;99.90
17529;DHT22;8882;53.192;8.184;2023-02-28T09:06:14;5.40;99.90
17529;DHT22;8882;53.192;8.184;2023-02-28T09:08:40;5.50;99.90
17529;DHT22;8882;53.192;8.184;2023-02-28T09:11:06;5.60;99.90
17529;DHT22;8882;53.192;8.184;2023-02-28T09:13:32;5.90;99.90
17529;DHT22;8882;53.192;8.184;2023-02-28T09:16:00;5.80;99.90
17529;DHT22;8882;53.192;8.184;2023-02-28T09:18:26;5.90;99.90
17529;DHT22;8882;53.192;8.184;2023-02-28T09:20:52;6.10;99.90
17529;DHT22;8882;53.192;8.184;2023-02-28T09:23:18;6.40;99.90
17529;DHT22;8882;53.192;8.184;2023-02-28T09:25:48;6.40;99.90
17529;DHT22;8882;53.192;8.184;2023-02-28T09:28:14;6.40;99.90
17529;DHT22;8882;53.192;8.184;2023-02-28T09:30:41;6.60;99.90
17529;DHT22;8882;53.192;8.184;2023-02-28T09:33:07;6.50;99.90
17529;DHT22;8882;53.192;8.184;2023-02-28T09:35:33;6.50;99.90
17529;DHT22;8882;53.192;8.184;2023-02-28T09:37:58;6.60;99.90
17529;DHT22;8882;53.192;8.184;2023-02-28T09:40:25;6.60;99.90
17529;DHT22;8882;53.192;8.184;2023-02-28T09:42:53;6.80;99.90
17529;DHT22;8882;53.192;8.184;2023-02-28T09:45:35;7.20;99.90
17529;DHT22;8882;53.192;8.184;2023-02-28T09:48:06;7.60;99.90
17529;DHT22;8882;53.192;8.184;2023-02-28T09:53:35;7.60;99.90
17529;DHT22;8882;53.192;8.184;2023-02-28T09:56:09;7.50;99.90
17529;DHT22;8882;53.192;8.184;2023-02-28T09:59:00;7.50;99.90
17529;DHT22;8882;53.192;8.184;2023-02-28T10:01:55;7.60;99.90
17529;DHT22;8882;53.192;8.184;2023-02-28T10:06:53;7.80;99.90
17529;DHT22;8882;53.192;8.184;2023-02-28T10:09:24;8.20;99.90
17529;DHT22;8882;53.192;8.184;2023-02-28T10:11:53;8.20;99.90
17529;DHT22;8882;53.192;8.184;2023-02-28T10:14:22;8.40;99.90
17529;DHT22;8882;53.192;8.184;2023-02-28T10:16:51;8.30;99.90
17529;DHT22;8882;53.192;8.184;2023-02-28T10:19:49;8.60;99.90
17529;DHT22;8882;53.192;8.184;2023-02-28T10:24:47;8.40;99.90
17529;DHT22;8882;53.192;8.184;2023-02-28T10:27:17;8.50;99.90
17529;DHT22;8882;53.192;8.184;2023-02-28T10:29:46;8.50;99.90
17529;DHT22;8882;53.192;8.184;2023-02-28T10:32:18;8.50;99.90
17529;DHT22;8882;53.192;8.184;2023-02-28T10:34:44;8.50;99.90
17529;DHT22;8882;53.192;8.184;2023-02-28T10:37:11;8.40;99.90
17529;DHT22;8882;53.192;8.184;2023-02-28T10:39:43;8.70;99.90
17529;DHT22;8882;53.192;8.184;2023-02-28T10:42:26;8.80;99.90
17529;DHT22;8882;53.192;8.184;2023-02-28T10:45:13;9.10;99.90
17529;DHT22;8882;53.192;8.184;2023-02-28T10:47:49;9.30;99.90
17529;DHT22;8882;53.192;8.184;2023-02-28T10:53:30;8.50;99.90
17529;DHT22;8882;53.192;8.184;2023-02-28T10:56:13;7.90;99.90
17529;DHT22;8882;53.192;8.184;2023-02-28T10:58:57;7.70;99.90
17529;DHT22;8882;53.192;8.184;2023-02-28T11:04:00;7.30;99.90
17529;DHT22;8882;53.192;8.184;2023-02-28T11:06:33;7.50;99.90
17529;DHT22;8882;53.192;8.184;2023-02-28T11:09:02;7.60;99.90
17529;DHT22;8882;53.192;8.184;2023-02-28T11:11:31;7.80;99.90
17529;DHT22;8882;53.192;8.184;2023-02-28T11:14:06;7.90;99.90
17529;DHT22;8882;53.192;8.184;2023-02-28T11:16:42;8.30;99.90
17529;DHT22;8882;53.192;8.184;2023-02-28T11:19:22;8.50;99.90
17529;DHT22;8882;53.192;8.184;2023-02-28T11:21:57;8.50;99.90
17529;DHT22;8882;53.192;8.184;2023-02-28T11:24:33;8.70;99.90
17529;DHT22;8882;53.192;8.184;2023-02-28T11:26:59;8.90;99.90
17529;DHT22;8882;53.192;8.184;2023-02-28T11:29:30;8.70;99.90
17529;DHT22;8882;53.192;8.184;2023-02-28T11:34:38;8.50;99.90
17529;DHT22;8882;53.192;8.184;2023-02-28T11:37:05;8.70;99.90
17529;DHT22;8882;53.192;8.184;2023-02-28T11:39:32;8.90;99.90
17529;DHT22;8882;53.192;8.184;2023-02-28T11:42:26;9.00;99.90
17529;DHT22;8882;53.192;8.184;2023-02-28T11:45:03;8.80;99.90
17529;DHT22;8882;53.192;8.184;2023-02-28T11:47:38;8.60;99.90
17529;DHT22;8882;53.192;8.184;2023-02-28T11:53:22;8.50;99.90
17529;DHT22;8882;53.192;8.184;2023-02-28T11:55:58;8.70;99.90
17529;DHT22;8882;53.192;8.184;2023-02-28T12:01:29;8.50;99.90
17529;DHT22;8882;53.192;8.184;2023-02-28T12:06:50;8.20;99.90
17529;DHT22;8882;53.192;8.184;2023-02-28T12:09:51;8.00;99.90
17529;DHT22;8882;53.192;8.184;2023-02-28T12:12:31;8.10;99.90
17529;DHT22;8882;53.192;8.184;2023-02-28T12:15:16;8.10;99.90
17529;DHT22;8882;53.192;8.184;2023-02-28T12:18:02;8.20;99.90
17529;DHT22;8882;53.192;8.184;2023-02-28T12:21:24;8.40;99.90
17529;DHT22;8882;53.192;8.184;2023-02-28T12:26:49;8.40;99.90
17529;DHT22;8882;53.192;8.184;2023-02-28T12:29:28;8.40;99.90
17529;DHT22;8882;53.192;8.184;2023-02-28T12:32:13;8.60;99.90
17529;DHT22;8882;53.192;8.184;2023-02-28T12:34:55;8.50;99.90
17529;DHT22;8882;53.192;8.184;2023-02-28T12:37:47;8.50;99.90
17529;DHT22;8882;53.192;8.184;2023-02-28T12:40:23;8.40;99.90
17529;DHT22;8882;53.192;8.184;2023-02-28T12:42:59;8.30;99.90
17529;DHT22;8882;53.192;8.184;2023-02-28T12:45:51;8.10;99.90
17529;DHT22;8882;53.192;8.184;2023-02-28T12:48:52;8.10;99.90
17529;DHT22;8882;53.192;8.184;2023-02-28T12:51:18;7.90;99.90
17529;DHT22;8882;53.192;8.184;2023-02-28T12:53:57;8.00;99.90
17529;DHT22;8882;53.192;8.184;2023-02-28T12:56:38;8.20;99.90
17529;DHT22;8882;53.192;8.184;2023-02-28T12:59:30;8.20;99.90
17529;DHT22;8882;53.192;8.184;2023-02-28T13:08:21;8.30;99.90
17529;DHT22;8882;53.192;8.184;2023-02-28T13:10:50;8.20;99.90
17529;DHT22;8882;53.192;8.184;2023-02-28T13:13:28;8.20;99.90
17529;DHT22;8882;53.192;8.184;2023-02-28T13:16:08;8.30;99.90
17529;DHT22;8882;53.192;8.184;2023-02-28T13:18:46;8.30;99.90
17529;DHT22;8882;53.192;8.184;2023-02-28T13:21:25;8.30;99.90
17529;DHT22;8882;53.192;8.184;2023-02-28T13:26:21;8.50;99.90
17529;DHT22;8882;53.192;8.184;2023-02-28T13:28:59;8.40;99.90
17529;DHT22;8882;53.192;8.184;2023-02-28T13:31:25;8.50;99.90
17529;DHT22;8882;53.192;8.184;2023-02-28T13:55:03;8.30;99.90
17529;DHT22;8882;53.192;8.184;2023-02-28T13:58:09;8.30;99.90
17529;DHT22;8882;53.192;8.184;2023-02-28T14:03:57;8.20;99.90
17529;DHT22;8882;53.192;8.184;2023-02-28T14:06:32;8.20;99.90
17529;DHT22;8882;53.192;8.184;2023-02-28T14:08:59;8.30;99.90
17529;DHT22;8882;53.192;8.184;2023-02-28T14:11:30;8.30;99.90
17529;DHT22;8882;53.192;8.184;2023-02-28T14:13:56;8.20;99.90
17529;DHT22;8882;53.192;8.184;2023-02-28T14:16:46;8.10;99.90
17529;DHT22;8882;53.192;8.184;2023-02-28T14:19:24;8.10;99.90
17529;DHT22;8882;53.192;8.184;2023-02-28T14:33:42;8.10;99.90
17529;DHT22;8882;53.192;8.184;2023-02-28T14:36:33;7.90;99.90
17529;DHT22;8882;53.192;8.184;2023-02-28T14:39:23;7.90;99.90
17529;DHT22;8882;53.192;8.184;2023-02-28T14:41:50;7.80;99.90
17529;DHT22;8882;53.192;8.184;2023-02-28T14:44:27;7.70;99.90
17529;DHT22;8882;53.192;8.184;2023-02-28T14:46:55;7.70;99.90
17529;DHT22;8882;53.192;8.184;2023-02-28T14:49:23;7.70;99.90
17529;DHT22;8882;53.192;8.184;2023-02-28T14:52:12;7.80;99.90
17529;DHT22;8882;53.192;8.184;2023-02-28T14:54:40;7.70;99.90
17529;DHT22;8882;53.192;8.184;2023-02-28T14:57:06;7.70;99.90
17529;DHT22;8882;53.192;8.184;2023-02-28T14:59:34;7.60;99.90
17529;DHT22;8882;53.192;8.184;2023-02-28T15:02:20;7.60;99.90
17529;DHT22;8882;53.192;8.184;2023-02-28T15:05:01;8.10;99.90
17529;DHT22;8882;53.192;8.184;2023-02-28T15:07:27;8.20;99.90
17529;DHT22;8882;53.192;8.184;2023-02-28T15:12:36;8.40;99.90
17529;DHT22;8882;53.192;8.184;2023-02-28T15:15:02;8.50;99.90
17529;DHT22;8882;53.192;8.184;2023-02-28T15:17:28;8.50;99.90
17529;DHT22;8882;53.192;8.184;2023-02-28T15:19:54;8.50;99.90
17529;DHT22;8882;53.192;8.184;2023-02-28T15:22:35;8.60;99.90
17529;DHT22;8882;53.192;8.184;2023-02-28T15:25:02;8.60;99.90
17529;DHT22;8882;53.192;8.184;2023-02-28T15:27:31;8.40;99.90
17529;DHT22;8882;53.192;8.184;2023-02-28T15:30:11;8.20;99.90
17529;DHT22;8882;53.192;8.184;2023-02-28T15:32:40;7.90;99.90
17529;DHT22;8882;53.192;8.184;2023-02-28T15:35:26;7.80;99.90
17529;DHT22;8882;53.192;8.184;2023-02-28T15:37:55;7.60;99.90
17529;DHT22;8882;53.192;8.184;2023-02-28T15:40:31;7.50;99.90
17529;DHT22;8882;53.192;8.184;2023-02-28T15:43:25;7.40;99.90
17529;DHT22;8882;53.192;8.184;2023-02-28T15:48:42;7.20;99.90
17529;DHT22;8882;53.192;8.184;2023-02-28T15:51:24;7.10;99.90
17529;DHT22;8882;53.192;8.184;2023-02-28T15:54:00;7.00;99.90
17529;DHT22;8882;53.192;8.184;2023-02-28T15:56:34;7.00;99.90
17529;DHT22;8882;53.192;8.184;2023-02-28T15:59:02;7.00;99.90
17529;DHT22;8882;53.192;8.184;2023-02-28T16:01:29;6.90;99.90
17529;DHT22;8882;53.192;8.184;2023-02-28T16:04:01;6.90;99.90
17529;DHT22;8882;53.192;8.184;2023-02-28T16:06:41;6.90;99.90
17529;DHT22;8882;53.192;8.184;2023-02-28T16:09:09;6.90;99.90
17529;DHT22;8882;53.192;8.184;2023-02-28T16:11:39;6.80;99.90
17529;DHT22;8882;53.192;8.184;2023-02-28T16:14:08;6.80;99.90
17529;DHT22;8882;53.192;8.184;2023-02-28T16:16:34;6.80;99.90
17529;DHT22;8882;53.192;8.184;2023-02-28T16:19:08;6.70;99.90
17529;DHT22;8882;53.192;8.184;2023-02-28T16:21:33;6.70;99.90
17529;DHT22;8882;53.192;8.184;2023-02-28T16:23:59;6.70;99.90
17529;DHT22;8882;53.192;8.184;2023-02-28T16:26:24;6.70;99.90
17529;DHT22;8882;53.192;8.184;2023-02-28T16:28:52;6.60;99.90
17529;DHT22;8882;53.192;8.184;2023-02-28T16:31:18;6.60;99.90
17529;DHT22;8882;53.192;8.184;2023-02-28T16:33:44;6.60;99.90
17529;DHT22;8882;53.192;8.184;2023-02-28T16:36:22;6.60;99.90
17529;DHT22;8882;53.192;8.184;2023-02-28T16:38:50;6.50;99.90
17529;DHT22;8882;53.192;8.184;2023-02-28T16:41:18;6.50;99.90
17529;DHT22;8882;53.192;8.184;2023-02-28T16:43:49;6.50;99.90
17529;DHT22;8882;53.192;8.184;2023-02-28T16:46:17;6.50;99.90
17529;DHT22;8882;53.192;8.184;2023-02-28T16:48:44;6.40;99.90
17529;DHT22;8882;53.192;8.184;2023-02-28T16:51:14;6.40;99.90
17529;DHT22;8882;53.192;8.184;2023-02-28T16:53:40;6.40;99.90
17529;DHT22;8882;53.192;8.184;2023-02-28T16:56:06;6.40;99.90
17529;DHT22;8882;53.192;8.184;2023-02-28T16:58:32;6.30;99.90
17529;DHT22;8882;53.192;8.184;2023-02-28T17:01:01;6.30;99.90
17529;DHT22;8882;53.192;8.184;2023-02-28T17:03:27;6.20;99.90
17529;DHT22;8882;53.192;8.184;2023-02-28T17:05:53;6.10;99.90
17529;DHT22;8882;53.192;8.184;2023-02-28T17:08:19;6.10;99.90
17529;DHT22;8882;53.192;8.184;2023-02-28T17:10:45;6.00;99.90
17529;DHT22;8882;53.192;8.184;2023-02-28T17:13:10;6.00;99.90
17529;DHT22;8882;53.192;8.184;2023-02-28T17:15:36;5.90;99.90
17529;DHT22;8882;53.192;8.184;2023-02-28T17:18:03;5.60;99.90
17529;DHT22;8882;53.192;8.184;2023-02-28T17:20:29;5.50;99.90
17529;DHT22;8882;53.192;8.184;2023-02-28T17:22:55;5.40;99.90
17529;DHT22;8882;53.192;8.184;2023-02-28T17:25:22;5.30;99.90
17529;DHT22;8882;53.192;8.184;2023-02-28T17:27:48;5.10;99.90
17529;DHT22;8882;53.192;8.184;2023-02-28T17:30:25;5.20;99.90
17529;DHT22;8882;53.192;8.184;2023-02-28T17:32:55;5.30;99.90
17529;DHT22;8882;53.192;8.184;2023-02-28T17:35:22;5.30;99.90
17529;DHT22;8882;53.192;8.184;2023-02-28T17:37:47;5.40;99.90
17529;DHT22;8882;53.192;8.184;2023-02-28T17:40:20;5.40;99.90
17529;DHT22;8882;53.192;8.184;2023-02-28T17:42:46;5.50;99.90
17529;DHT22;8882;53.192;8.184;2023-02-28T17:45:13;5.50;99.90
17529;DHT22;8882;53.192;8.184;2023-02-28T17:47:39;5.50;99.90
17529;DHT22;8882;53.192;8.184;2023-02-28T17:50:06;5.60;99.90
17529;DHT22;8882;53.192;8.184;2023-02-28T17:52:31;5.60;99.90
17529;DHT22;8882;53.192;8.184;2023-02-28T17:55:02;5.60;99.90
17529;DHT22;8882;53.192;8.184;2023-02-28T17:57:28;5.60;99.90
17529;DHT22;8882;53.192;8.184;2023-02-28T17:59:53;5.60;99.90
17529;DHT22;8882;53.192;8.184;2023-02-28T18:02:19;5.60;99.90
17529;DHT22;8882;53.192;8.184;2023-02-28T18:04:44;5.50;99.90
17529;DHT22;8882;53.192;8.184;2023-02-28T18:07:11;5.50;99.90
17529;DHT22;8882;53.192;8.184;2023-02-28T18:09:37;5.50;99.90
17529;DHT22;8882;53.192;8.184;2023-02-28T18:12:03;5.40;99.90
17529;DHT22;8882;53.192;8.184;2023-02-28T18:14:28;5.40;99.90
17529;DHT22;8882;53.192;8.184;2023-02-28T18:16:55;5.30;99.90
17529;DHT22;8882;53.192;8.184;2023-02-28T18:19:21;5.20;99.90
17529;DHT22;8882;53.192;8.184;2023-02-28T18:21:49;5.20;99.90
17529;DHT22;8882;53.192;8.184;2023-02-28T18:24:16;5.10;99.90
17529;DHT22;8882;53.192;8.184;2023-02-28T18:26:41;5.10;99.90
17529;DHT22;8882;53.192;8.184;2023-02-28T18:29:08;5.00;99.90
17529;DHT22;8882;53.192;8.184;2023-02-28T18:31:39;4.90;99.90
17529;DHT22;8882;53.192;8.184;2023-02-28T18:34:06;4.90;99.90
17529;DHT22;8882;53.192;8.184;2023-02-28T18:36:31;4.80;99.90
17529;DHT22;8882;53.192;8.184;2023-02-28T18:38:57;4.70;99.90
17529;DHT22;8882;53.192;8.184;2023-02-28T18:41:24;4.60;99.90
17529;DHT22;8882;53.192;8.184;2023-02-28T18:43:50;4.60;99.90
17529;DHT22;8882;53.192;8.184;2023-02-28T18:46:17;4.50;99.90
17529;DHT22;8882;53.192;8.184;2023-02-28T18:48:44;4.40;99.90
17529;DHT22;8882;53.192;8.184;2023-02-28T18:51:14;4.40;99.90
17529;DHT22;8882;53.192;8.184;2023-02-28T18:53:41;4.30;99.90
17529;DHT22;8882;53.192;8.184;2023-02-28T18:56:08;4.40;99.90
17529;DHT22;8882;53.192;8.184;2023-02-28T18:58:35;4.50;99.90
17529;DHT22;8882;53.192;8.184;2023-02-28T19:01:01;4.60;99.90
17529;DHT22;8882;53.192;8.184;2023-02-28T19:03:27;4.40;99.90
17529;DHT22;8882;53.192;8.184;2023-02-28T19:05:54;4.30;99.90
17529;DHT22;8882;53.192;8.184;2023-02-28T19:08:20;4.20;99.90
17529;DHT22;8882;53.192;8.184;2023-02-28T19:10:45;4.00;99.90
17529;DHT22;8882;53.192;8.184;2023-02-28T19:13:11;3.90;99.90
17529;DHT22;8882;53.192;8.184;2023-02-28T19:15:36;3.90;99.90
17529;DHT22;8882;53.192;8.184;2023-02-28T19:18:02;3.80;99.90
17529;DHT22;8882;53.192;8.184;2023-02-28T19:20:27;3.70;99.90
17529;DHT22;8882;53.192;8.184;2023-02-28T19:22:53;3.70;99.90
17529;DHT22;8882;53.192;8.184;2023-02-28T19:25:18;3.60;99.90
17529;DHT22;8882;53.192;8.184;2023-02-28T19:27:44;3.50;99.90
17529;DHT22;8882;53.192;8.184;2023-02-28T19:30:10;3.40;99.90
17529;DHT22;8882;53.192;8.184;2023-02-28T19:32:36;3.40;99.90
17529;DHT22;8882;53.192;8.184;2023-02-28T19:35:02;3.30;99.90
17529;DHT22;8882;53.192;8.184;2023-02-28T19:37:28;3.20;99.90
17529;DHT22;8882;53.192;8.184;2023-02-28T19:39:54;3.20;99.90
17529;DHT22;8882;53.192;8.184;2023-02-28T19:42:21;3.00;99.90
17529;DHT22;8882;53.192;8.184;2023-02-28T19:44:47;3.00;99.90
17529;DHT22;8882;53.192;8.184;2023-02-28T19:47:12;2.90;99.90
17529;DHT22;8882;53.192;8.184;2023-02-28T19:49:38;2.80;99.90
17529;DHT22;8882;53.192;8.184;2023-02-28T19:52:04;2.80;99.90
17529;DHT22;8882;53.192;8.184;2023-02-28T19:54:30;2.70;99.90
17529;DHT22;8882;53.192;8.184;2023-02-28T19:56:55;2.70;99.90
17529;DHT22;8882;53.192;8.184;2023-02-28T19:59:25;2.50;99.90
17529;DHT22;8882;53.192;8.184;2023-02-28T20:01:52;2.50;99.90
17529;DHT22;8882;53.192;8.184;2023-02-28T20:04:24;2.50;99.90
17529;DHT22;8882;53.192;8.184;2023-02-28T20:06:51;2.50;99.90
17529;DHT22;8882;53.192;8.184;2023-02-28T20:09:18;2.40;99.90
17529;DHT22;8882;53.192;8.184;2023-02-28T20:11:44;2.40;99.90
17529;DHT22;8882;53.192;8.184;2023-02-28T20:14:10;2.40;99.90
17529;DHT22;8882;53.192;8.184;2023-02-28T20:16:38;2.30;99.90
17529;DHT22;8882;53.192;8.184;2023-02-28T20:19:04;2.30;99.90
17529;DHT22;8882;53.192;8.184;2023-02-28T20:21:29;2.40;99.90
17529;DHT22;8882;53.192;8.184;2023-02-28T20:23:55;2.40;99.90
17529;DHT22;8882;53.192;8.184;2023-02-28T20:26:20;2.40;99.90
17529;DHT22;8882;53.192;8.184;2023-02-28T20:28:46;2.40;99.90
17529;DHT22;8882;53.192;8.184;2023-02-28T20:31:14;2.30;99.90
17529;DHT22;8882;53.192;8.184;2023-02-28T20:33:41;2.40;99.90
17529;DHT22;8882;53.192;8.184;2023-02-28T20:36:07;2.30;99.90
17529;DHT22;8882;53.192;8.184;2023-02-28T20:38:35;2.20;99.90
17529;DHT22;8882;53.192;8.184;2023-02-28T20:41:01;2.20;99.90
17529;DHT22;8882;53.192;8.184;2023-02-28T20:43:27;2.20;99.90
17529;DHT22;8882;53.192;8.184;2023-02-28T20:45:55;2.20;99.90
17529;DHT22;8882;53.192;8.184;2023-02-28T20:48:30;2.20;99.90
17529;DHT22;8882;53.192;8.184;2023-02-28T20:50:58;2.20;99.90
17529;DHT22;8882;53.192;8.184;2023-02-28T20:53:25;2.20;99.90
17529;DHT22;8882;53.192;8.184;2023-02-28T20:55:59;2.20;99.90
17529;DHT22;8882;53.192;8.184;2023-02-28T20:58:27;2.20;99.90
17529;DHT22;8882;53.192;8.184;2023-02-28T21:01:04;2.20;99.90
17529;DHT22;8882;53.192;8.184;2023-02-28T21:03:40;2.10;99.90
17529;DHT22;8882;53.192;8.184;2023-02-28T21:06:06;2.10;99.90
17529;DHT22;8882;53.192;8.184;2023-02-28T21:08:33;2.10;99.90
17529;DHT22;8882;53.192;8.184;2023-02-28T21:10:59;2.00;99.90
17529;DHT22;8882;53.192;8.184;2023-02-28T21:13:25;2.00;99.90
17529;DHT22;8882;53.192;8.184;2023-02-28T21:15:51;2.00;99.90
17529;DHT22;8882;53.192;8.184;2023-02-28T21:18:17;1.90;99.90
17529;DHT22;8882;53.192;8.184;2023-02-28T21:20:43;1.90;99.90
17529;DHT22;8882;53.192;8.184;2023-02-28T21:23:09;1.80;99.90
17529;DHT22;8882;53.192;8.184;2023-02-28T21:25:34;1.70;99.90
17529;DHT22;8882;53.192;8.184;2023-02-28T21:28:00;1.70;99.90
17529;DHT22;8882;53.192;8.184;2023-02-28T21:30:26;1.60;99.90
17529;DHT22;8882;53.192;8.184;2023-02-28T21:32:51;1.50;99.90
17529;DHT22;8882;53.192;8.184;2023-02-28T21:35:17;1.60;99.90
17529;DHT22;8882;53.192;8.184;2023-02-28T21:37:42;1.50;99.90
17529;DHT22;8882;53.192;8.184;2023-02-28T21:40:09;1.50;99.90
17529;DHT22;8882;53.192;8.184;2023-02-28T21:42:34;1.50;99.90
17529;DHT22;8882;53.192;8.184;2023-02-28T21:45:00;1.40;99.90
17529;DHT22;8882;53.192;8.184;2023-02-28T21:47:29;1.40;99.90
17529;DHT22;8882;53.192;8.184;2023-02-28T21:49:55;1.40;99.90
17529;DHT22;8882;53.192;8.184;2023-02-28T21:52:21;1.40;99.90
17529;DHT22;8882;53.192;8.184;2023-02-28T21:54:47;1.40;99.90
17529;DHT22;8882;53.192;8.184;2023-02-28T21:57:13;1.30;99.90
17529;DHT22;8882;53.192;8.184;2023-02-28T21:59:40;1.30;99.90
